Time;durP1;ratioP1;P1;durP2;ratioP2;P2;SDS_P1;SDS_P2;PMS_P1;PMS_P2;Temp;Humidity;BMP_temperature;BMP_pressure;BME280_temperature;BME280_humidity;BME280_pressure;Samples;Min_cycle;Max_cycle;Signal;HPM_P1;HPM_P2
2021/01/31 00:00:29;;;;;;;;;;;9.80;99.90;;;;;;5095192;28;19914;-79
2021/01/31 00:02:54;;;;;;;;;;;9.80;99.90;;;;;;5096463;28;19912;-79
2021/01/31 00:05:21;;;;;;;;;;;9.80;99.90;;;;;;5095282;28;20014;-79
2021/01/31 00:07:46;;;;;;;;;;;9.80;99.90;;;;;;5091957;28;20372;-79
2021/01/31 00:10:13;;;;;;;;;;;9.80;99.90;;;;;;5076292;28;19963;-79
2021/01/31 00:12:38;;;;;;;;;;;9.80;99.90;;;;;;5075364;28;19916;-78
2021/01/31 00:15:06;;;;;;;;;;;9.80;99.90;;;;;;5075881;28;19916;-78
2021/01/31 00:17:31;;;;;;;;;;;9.80;99.90;;;;;;5075691;28;19915;-78
2021/01/31 00:19:57;;;;;;;;;;;9.80;99.90;;;;;;5084814;28;19912;-77
2021/01/31 00:22:22;;;;;;;;;;;9.80;99.90;;;;;;5096183;28;20374;-78
2021/01/31 00:24:53;;;;;;;;;;;9.80;99.90;;;;;;5096025;28;19913;-78
2021/01/31 00:27:20;;;;;;;;;;;9.80;99.90;;;;;;5096161;28;19916;-77
2021/01/31 00:29:45;;;;;;;;;;;9.80;99.90;;;;;;5096048;28;19915;-78
2021/01/31 00:32:11;;;;;;;;;;;9.80;99.90;;;;;;5095936;28;19909;-84
2021/01/31 00:34:36;;;;;;;;;;;9.80;99.90;;;;;;5095932;28;19908;-83
2021/01/31 00:37:02;;;;;;;;;;;9.80;99.90;;;;;;5095733;28;20337;-83
2021/01/31 00:39:27;;;;;;;;;;;9.80;99.90;;;;;;5096070;28;19912;-84
2021/01/31 00:41:53;;;;;;;;;;;9.80;99.90;;;;;;5095857;28;19908;-84
2021/01/31 00:44:18;;;;;;;;;;;9.80;99.90;;;;;;5095844;28;19918;-76
2021/01/31 00:46:44;;;;;;;;;;;9.80;99.90;;;;;;5095554;28;19919;-83
2021/01/31 00:49:10;;;;;;;;;;;9.80;99.90;;;;;;5095300;28;19953;-83
2021/01/31 00:51:35;;;;;;;;;;;9.70;99.90;;;;;;5095876;28;19908;-81
2021/01/31 00:54:01;;;;;;;;;;;9.70;99.90;;;;;;5095273;28;19908;-83
2021/01/31 00:56:26;;;;;;;;;;;9.70;99.90;;;;;;5094421;28;19909;-76
2021/01/31 00:58:52;;;;;;;;;;;9.60;99.90;;;;;;5095562;28;20274;-77
2021/01/31 01:01:18;;;;;;;;;;;9.60;99.90;;;;;;5093421;28;20308;-83
2021/01/31 01:03:44;;;;;;;;;;;9.60;99.90;;;;;;5095706;28;20397;-83
2021/01/31 01:06:09;;;;;;;;;;;9.60;99.90;;;;;;5095483;28;19920;-76
2021/01/31 01:08:35;;;;;;;;;;;9.60;99.90;;;;;;5095071;28;19916;-83
2021/01/31 01:11:00;;;;;;;;;;;9.70;99.90;;;;;;5095232;28;20370;-77
2021/01/31 01:13:27;;;;;;;;;;;9.70;99.90;;;;;;5094847;28;19963;-76
2021/01/31 01:15:53;;;;;;;;;;;9.70;99.90;;;;;;5093274;28;19909;-77
2021/01/31 01:18:18;;;;;;;;;;;9.80;99.90;;;;;;5094996;28;19912;-77
2021/01/31 01:20:44;;;;;;;;;;;9.80;99.90;;;;;;5095132;28;19908;-77
2021/01/31 01:23:09;;;;;;;;;;;9.80;99.90;;;;;;5095078;28;20362;-81
2021/01/31 01:25:35;;;;;;;;;;;9.80;99.90;;;;;;5094970;28;19912;-77
2021/01/31 01:28:00;;;;;;;;;;;9.80;99.90;;;;;;5094899;28;19908;-74
2021/01/31 01:30:30;;;;;;;;;;;9.80;99.90;;;;;;5094654;28;19934;-80
2021/01/31 01:32:56;;;;;;;;;;;9.80;99.90;;;;;;5095120;28;19912;-80
2021/01/31 01:35:22;;;;;;;;;;;9.80;99.90;;;;;;5094928;28;19912;-74
2021/01/31 01:37:49;;;;;;;;;;;9.80;99.90;;;;;;5094253;28;19908;-74
2021/01/31 01:40:16;;;;;;;;;;;9.80;99.90;;;;;;5094682;28;20279;-74
2021/01/31 01:42:42;;;;;;;;;;;9.70;99.90;;;;;;5094679;28;20427;-81
2021/01/31 01:45:08;;;;;;;;;;;9.70;99.90;;;;;;5094305;28;20003;-81
2021/01/31 01:47:34;;;;;;;;;;;9.70;99.90;;;;;;5092909;28;19908;-81
2021/01/31 01:50:04;;;;;;;;;;;9.70;99.90;;;;;;5094407;28;20298;-75
2021/01/31 01:52:34;;;;;;;;;;;9.60;99.90;;;;;;5094244;28;19914;-74
2021/01/31 01:55:05;;;;;;;;;;;9.70;99.90;;;;;;5094725;28;19908;-74
2021/01/31 01:57:35;;;;;;;;;;;9.70;99.90;;;;;;5094357;28;19908;-80
2021/01/31 02:00:01;;;;;;;;;;;9.60;99.90;;;;;;5094219;28;19913;-81
2021/01/31 02:02:36;;;;;;;;;;;9.60;99.90;;;;;;5092772;28;19973;-74
2021/01/31 02:05:04;;;;;;;;;;;9.70;99.90;;;;;;5092753;28;19969;-74
2021/01/31 02:07:30;;;;;;;;;;;9.60;99.90;;;;;;5093525;28;19995;-74
2021/01/31 02:09:55;;;;;;;;;;;9.70;99.90;;;;;;5093682;28;19947;-75
2021/01/31 02:12:23;;;;;;;;;;;9.70;99.90;;;;;;5091587;28;19978;-80
2021/01/31 02:14:50;;;;;;;;;;;9.70;99.90;;;;;;5074586;28;20340;-80
2021/01/31 02:17:20;;;;;;;;;;;9.70;99.90;;;;;;5072999;28;20009;-74
2021/01/31 02:19:46;;;;;;;;;;;9.70;99.90;;;;;;5080702;28;19955;-79
2021/01/31 02:22:25;;;;;;;;;;;9.60;99.90;;;;;;5093603;28;19912;-80
2021/01/31 02:25:09;;;;;;;;;;;9.70;99.90;;;;;;5092749;28;20085;-80
2021/01/31 02:27:34;;;;;;;;;;;9.70;99.90;;;;;;5093850;28;20377;-80
2021/01/31 02:30:35;;;;;;;;;;;9.70;99.90;;;;;;5093648;28;19955;-80
2021/01/31 02:33:04;;;;;;;;;;;9.70;99.90;;;;;;5051259;28;19909;-80
2021/01/31 02:35:30;;;;;;;;;;;9.70;99.90;;;;;;5085030;28;19982;-80
2021/01/31 02:38:04;;;;;;;;;;;9.70;99.90;;;;;;5092806;28;20386;-75
2021/01/31 02:40:39;;;;;;;;;;;9.70;99.90;;;;;;5093621;28;19915;-80
2021/01/31 02:43:10;;;;;;;;;;;9.70;99.90;;;;;;5093693;28;20287;-74
2021/01/31 02:45:38;;;;;;;;;;;9.70;99.90;;;;;;5093294;28;20375;-78
2021/01/31 02:48:08;;;;;;;;;;;9.70;99.90;;;;;;5093218;28;20378;-74
2021/01/31 02:50:39;;;;;;;;;;;9.70;99.90;;;;;;5093498;28;19923;-75
2021/01/31 02:53:07;;;;;;;;;;;9.70;99.90;;;;;;5091884;28;19930;-74
2021/01/31 02:55:45;;;;;;;;;;;9.70;99.90;;;;;;5093711;28;20274;-79
2021/01/31 02:58:13;;;;;;;;;;;9.70;99.90;;;;;;5093525;28;19912;-79
2021/01/31 03:00:42;;;;;;;;;;;9.70;99.90;;;;;;5092701;28;19920;-74
2021/01/31 03:03:13;;;;;;;;;;;9.60;99.90;;;;;;5091807;28;20371;-78
2021/01/31 03:05:41;;;;;;;;;;;9.60;99.90;;;;;;5092904;28;19969;-79
2021/01/31 03:08:09;;;;;;;;;;;9.60;99.90;;;;;;5092720;28;19912;-76
2021/01/31 03:10:40;;;;;;;;;;;9.50;99.90;;;;;;5093227;28;19912;-75
2021/01/31 03:13:25;;;;;;;;;;;9.50;99.90;;;;;;5091795;28;20452;-74
2021/01/31 03:15:54;;;;;;;;;;;9.50;99.90;;;;;;5092304;28;19908;-80
2021/01/31 03:18:23;;;;;;;;;;;9.50;99.90;;;;;;5091777;28;19908;-80
2021/01/31 03:21:01;;;;;;;;;;;9.50;99.90;;;;;;5092981;28;19912;-74
2021/01/31 03:23:36;;;;;;;;;;;9.50;99.90;;;;;;5090652;28;20438;-74
2021/01/31 03:26:05;;;;;;;;;;;9.50;99.90;;;;;;5077008;28;19948;-74
2021/01/31 03:28:30;;;;;;;;;;;9.50;99.90;;;;;;5075612;28;20276;-79
2021/01/31 03:30:57;;;;;;;;;;;9.50;99.90;;;;;;5076669;28;19916;-74
2021/01/31 03:33:26;;;;;;;;;;;9.50;99.90;;;;;;5076873;28;20350;-79
2021/01/31 03:35:53;;;;;;;;;;;9.50;99.90;;;;;;5076234;28;19955;-74
2021/01/31 03:38:20;;;;;;;;;;;9.50;99.90;;;;;;5087423;28;20403;-79
2021/01/31 03:40:48;;;;;;;;;;;9.50;99.90;;;;;;5096987;28;19931;-79
2021/01/31 03:43:14;;;;;;;;;;;9.50;99.90;;;;;;5097035;28;19956;-80
2021/01/31 03:45:58;;;;;;;;;;;9.50;99.90;;;;;;5096582;28;19916;-80
2021/01/31 03:48:26;;;;;;;;;;;9.50;99.90;;;;;;5096706;28;19908;-74
2021/01/31 03:50:51;;;;;;;;;;;9.50;99.90;;;;;;5095488;28;20284;-74
2021/01/31 03:53:17;;;;;;;;;;;9.50;99.90;;;;;;5096709;28;19966;-79
2021/01/31 03:55:42;;;;;;;;;;;9.50;99.90;;;;;;5096815;28;19920;-80
2021/01/31 03:58:09;;;;;;;;;;;9.50;99.90;;;;;;5096863;28;19946;-74
2021/01/31 04:00:36;;;;;;;;;;;9.50;99.90;;;;;;5096374;28;20010;-74
2021/01/31 04:03:40;;;;;;;;;;;9.50;99.90;;;;;;5093770;28;19908;-80
2021/01/31 04:06:08;;;;;;;;;;;9.40;99.90;;;;;;5053945;28;20016;-74
2021/01/31 04:08:34;;;;;;;;;;;9.40;99.90;;;;;;5053645;28;19955;-79
2021/01/31 04:11:00;;;;;;;;;;;9.40;99.90;;;;;;5054050;28;20012;-79
2021/01/31 04:13:28;;;;;;;;;;;9.40;99.90;;;;;;5053553;28;19909;-74
2021/01/31 04:15:55;;;;;;;;;;;9.40;99.90;;;;;;5036560;28;19920;-74
2021/01/31 04:18:22;;;;;;;;;;;9.40;99.90;;;;;;5053785;28;19958;-79
2021/01/31 04:20:48;;;;;;;;;;;9.40;99.90;;;;;;5053739;28;19908;-73
2021/01/31 04:23:13;;;;;;;;;;;9.40;99.90;;;;;;5053613;28;19920;-79
2021/01/31 04:25:39;;;;;;;;;;;9.40;99.90;;;;;;5053817;28;20023;-80
2021/01/31 04:28:09;;;;;;;;;;;9.40;99.90;;;;;;5053700;28;19909;-73
2021/01/31 04:30:35;;;;;;;;;;;9.40;99.90;;;;;;5052452;28;19988;-74
2021/01/31 04:33:00;;;;;;;;;;;9.40;99.90;;;;;;5052972;28;19932;-79
2021/01/31 04:35:25;;;;;;;;;;;9.40;99.90;;;;;;5053438;28;19968;-73
2021/01/31 04:37:51;;;;;;;;;;;9.40;99.90;;;;;;5085158;28;19944;-79
2021/01/31 04:40:18;;;;;;;;;;;9.30;99.90;;;;;;5075556;28;20003;-73
2021/01/31 04:42:44;;;;;;;;;;;9.30;99.90;;;;;;5075606;28;19917;-73
2021/01/31 04:45:11;;;;;;;;;;;9.30;99.90;;;;;;5107964;28;19908;-74
2021/01/31 04:47:37;;;;;;;;;;;9.30;99.90;;;;;;5081403;28;19908;-79
2021/01/31 04:50:03;;;;;;;;;;;9.40;99.90;;;;;;5095939;28;19931;-73
2021/01/31 04:52:43;;;;;;;;;;;9.30;99.90;;;;;;5095621;28;20379;-73
2021/01/31 04:55:15;;;;;;;;;;;9.30;99.90;;;;;;5094342;28;19912;-79
2021/01/31 04:58:09;;;;;;;;;;;9.30;99.90;;;;;;5095605;28;19923;-79
2021/01/31 05:00:37;;;;;;;;;;;9.30;99.90;;;;;;5085751;28;19943;-74
2021/01/31 05:03:04;;;;;;;;;;;9.30;99.90;;;;;;5094254;28;20298;-80
2021/01/31 05:05:33;;;;;;;;;;;9.40;99.90;;;;;;5095086;28;19920;-73
2021/01/31 05:08:00;;;;;;;;;;;9.40;99.90;;;;;;5092925;28;19947;-74
2021/01/31 05:10:26;;;;;;;;;;;9.40;99.90;;;;;;5095176;28;20049;-79
2021/01/31 05:12:57;;;;;;;;;;;9.30;99.90;;;;;;5093510;28;19908;-79
2021/01/31 05:15:27;;;;;;;;;;;9.30;99.90;;;;;;5094714;28;19909;-79
2021/01/31 05:17:54;;;;;;;;;;;9.30;99.90;;;;;;5094844;28;20041;-79
2021/01/31 05:20:22;;;;;;;;;;;9.30;99.90;;;;;;5094990;28;19931;-79
2021/01/31 05:22:49;;;;;;;;;;;9.30;99.90;;;;;;5095060;28;20367;-79
2021/01/31 05:25:16;;;;;;;;;;;9.30;99.90;;;;;;5094868;28;20353;-79
2021/01/31 05:27:43;;;;;;;;;;;9.30;99.90;;;;;;5095033;28;20011;-79
2021/01/31 05:30:09;;;;;;;;;;;9.30;99.90;;;;;;5094811;28;20375;-79
2021/01/31 05:32:52;;;;;;;;;;;9.30;99.90;;;;;;5094508;28;20010;-80
2021/01/31 05:35:22;;;;;;;;;;;9.30;99.90;;;;;;5094768;28;20358;-79
2021/01/31 05:37:48;;;;;;;;;;;9.30;99.90;;;;;;5094474;28;20416;-79
2021/01/31 05:40:26;;;;;;;;;;;9.30;99.90;;;;;;5094499;28;19923;-79
2021/01/31 05:42:52;;;;;;;;;;;9.30;99.90;;;;;;5094807;28;20401;-80
2021/01/31 05:45:20;;;;;;;;;;;9.30;99.90;;;;;;5093275;28;19908;-79
2021/01/31 05:47:47;;;;;;;;;;;9.30;99.90;;;;;;5094522;28;19909;-80
2021/01/31 05:50:31;;;;;;;;;;;9.20;99.90;;;;;;5094466;28;20293;-79
2021/01/31 05:52:57;;;;;;;;;;;9.20;99.90;;;;;;5093235;28;19915;-80
2021/01/31 05:55:32;;;;;;;;;;;9.20;99.90;;;;;;5094544;28;19912;-74
2021/01/31 05:58:18;;;;;;;;;;;9.20;99.90;;;;;;5094552;28;19927;-74
2021/01/31 06:00:44;;;;;;;;;;;9.30;99.90;;;;;;5093517;28;19954;-80
2021/01/31 06:03:10;;;;;;;;;;;9.30;99.90;;;;;;5093119;28;19951;-78
2021/01/31 06:05:36;;;;;;;;;;;9.30;99.90;;;;;;5094069;28;19970;-80
2021/01/31 06:08:04;;;;;;;;;;;9.30;99.90;;;;;;5087290;28;19944;-80
2021/01/31 06:10:30;;;;;;;;;;;9.20;99.90;;;;;;5073829;28;19920;-74
2021/01/31 06:13:04;;;;;;;;;;;9.10;99.90;;;;;;5073350;28;20010;-74
2021/01/31 06:15:35;;;;;;;;;;;9.10;99.90;;;;;;5071835;28;19909;-74
2021/01/31 06:18:03;;;;;;;;;;;9.10;99.90;;;;;;5072151;28;19909;-80
2021/01/31 06:20:32;;;;;;;;;;;9.20;99.90;;;;;;5086455;28;19912;-74
2021/01/31 06:22:58;;;;;;;;;;;9.20;99.90;;;;;;5093853;28;19908;-79
2021/01/31 06:25:26;;;;;;;;;;;9.20;99.90;;;;;;5093848;28;20291;-74
2021/01/31 06:27:57;;;;;;;;;;;9.30;99.90;;;;;;5094151;28;20282;-74
2021/01/31 06:30:28;;;;;;;;;;;9.30;99.90;;;;;;5093701;28;19995;-80
2021/01/31 06:32:53;;;;;;;;;;;9.30;99.90;;;;;;5093710;28;19912;-74
2021/01/31 06:35:21;;;;;;;;;;;9.30;99.90;;;;;;5093566;28;20369;-74
2021/01/31 06:38:01;;;;;;;;;;;9.30;99.90;;;;;;5086841;28;19916;-78
2021/01/31 06:40:46;;;;;;;;;;;9.30;99.90;;;;;;5073385;28;20043;-74
2021/01/31 06:43:30;;;;;;;;;;;9.30;99.90;;;;;;5072006;28;19909;-75
2021/01/31 06:45:55;;;;;;;;;;;9.30;99.90;;;;;;5072886;28;19936;-74
2021/01/31 06:48:40;;;;;;;;;;;9.30;99.90;;;;;;5084581;28;20371;-74
2021/01/31 06:51:11;;;;;;;;;;;9.30;99.90;;;;;;5093532;28;19908;-74
2021/01/31 06:53:37;;;;;;;;;;;9.30;99.90;;;;;;5093346;28;19909;-74
2021/01/31 06:56:08;;;;;;;;;;;9.30;99.90;;;;;;5093341;28;20302;-80
2021/01/31 06:59:09;;;;;;;;;;;9.30;99.90;;;;;;5093625;28;20367;-79
2021/01/31 07:01:44;;;;;;;;;;;9.30;99.90;;;;;;5050500;28;20015;-74
2021/01/31 07:04:32;;;;;;;;;;;9.30;99.90;;;;;;5085775;28;19988;-74
2021/01/31 07:07:04;;;;;;;;;;;9.30;99.90;;;;;;5087489;28;19955;-74
2021/01/31 07:09:37;;;;;;;;;;;9.30;99.90;;;;;;5074825;28;20464;-79
2021/01/31 07:12:20;;;;;;;;;;;9.30;99.90;;;;;;5092544;28;19912;-74
2021/01/31 07:15:02;;;;;;;;;;;9.30;99.90;;;;;;5092792;28;20409;-74
2021/01/31 07:17:46;;;;;;;;;;;9.20;99.90;;;;;;5092562;28;19908;-74
2021/01/31 07:20:24;;;;;;;;;;;9.20;99.90;;;;;;5093027;28;20454;-80
2021/01/31 07:22:51;;;;;;;;;;;9.30;99.90;;;;;;5091726;28;19912;-74
2021/01/31 07:25:25;;;;;;;;;;;9.30;99.90;;;;;;5092925;28;19965;-80
2021/01/31 07:28:09;;;;;;;;;;;9.20;99.90;;;;;;5091771;28;19908;-80
2021/01/31 07:30:38;;;;;;;;;;;9.30;99.90;;;;;;5092874;28;19912;-80
2021/01/31 07:33:20;;;;;;;;;;;9.20;99.90;;;;;;5092983;28;19915;-80
2021/01/31 07:35:45;;;;;;;;;;;9.20;99.90;;;;;;5091665;28;19939;-80
2021/01/31 07:38:14;;;;;;;;;;;9.20;99.90;;;;;;5092700;28;20409;-80
2021/01/31 07:40:41;;;;;;;;;;;9.20;99.90;;;;;;5092933;28;19908;-80
2021/01/31 07:43:10;;;;;;;;;;;9.20;99.90;;;;;;5093127;28;19908;-74
2021/01/31 07:45:35;;;;;;;;;;;9.20;99.90;;;;;;5092511;28;19912;-74
2021/01/31 07:48:19;;;;;;;;;;;9.30;99.90;;;;;;5092845;28;19947;-80
2021/01/31 07:50:45;;;;;;;;;;;9.30;99.90;;;;;;5092994;28;19909;-79
2021/01/31 07:53:10;;;;;;;;;;;9.30;99.90;;;;;;5091475;28;19915;-74
2021/01/31 07:55:38;;;;;;;;;;;9.30;99.90;;;;;;5091547;28;19912;-74
2021/01/31 07:58:31;;;;;;;;;;;9.30;99.90;;;;;;5092669;28;20282;-74
2021/01/31 08:00:57;;;;;;;;;;;9.30;99.90;;;;;;5091749;28;20358;-82
2021/01/31 08:03:26;;;;;;;;;;;9.40;99.90;;;;;;5092673;28;20000;-82
2021/01/31 08:05:51;;;;;;;;;;;9.40;99.90;;;;;;5091606;28;19920;-76
2021/01/31 08:08:36;;;;;;;;;;;9.40;99.90;;;;;;5087993;28;19920;-82
2021/01/31 08:11:03;;;;;;;;;;;9.50;99.90;;;;;;5075974;28;20046;-76
2021/01/31 08:13:31;;;;;;;;;;;9.50;99.90;;;;;;5074616;28;19965;-83
2021/01/31 08:15:57;;;;;;;;;;;9.50;99.90;;;;;;5075708;28;19923;-82
2021/01/31 08:18:23;;;;;;;;;;;9.50;99.90;;;;;;5075450;28;20287;-82
2021/01/31 08:20:49;;;;;;;;;;;9.50;99.90;;;;;;5090321;28;19912;-76
2021/01/31 08:23:24;;;;;;;;;;;9.60;99.90;;;;;;5096498;28;19946;-76
2021/01/31 08:25:55;;;;;;;;;;;9.60;99.90;;;;;;5096209;28;19916;-82
2021/01/31 08:28:28;;;;;;;;;;;9.60;99.90;;;;;;5094918;28;19919;-76
2021/01/31 08:31:05;;;;;;;;;;;9.70;99.90;;;;;;5096076;28;19958;-76
2021/01/31 08:33:34;;;;;;;;;;;9.80;99.90;;;;;;5096183;28;19908;-82
2021/01/31 08:36:00;;;;;;;;;;;9.80;99.90;;;;;;5095986;28;19915;-76
2021/01/31 08:38:28;;;;;;;;;;;9.80;99.90;;;;;;5092169;28;19995;-82
2021/01/31 08:41:03;;;;;;;;;;;9.80;99.90;;;;;;5075763;28;19928;-82
2021/01/31 08:43:36;;;;;;;;;;;9.80;99.90;;;;;;5075792;28;19919;-76
2021/01/31 08:46:21;;;;;;;;;;;9.80;99.90;;;;;;5075286;28;20010;-83
2021/01/31 08:49:02;;;;;;;;;;;9.70;99.90;;;;;;5087470;28;19919;-76
2021/01/31 08:51:29;;;;;;;;;;;9.70;99.90;;;;;;5090806;28;19996;-82
2021/01/31 08:54:15;;;;;;;;;;;9.80;99.90;;;;;;5079087;28;19999;-82
2021/01/31 08:56:45;;;;;;;;;;;9.80;99.90;;;;;;5095649;28;19915;-77
2021/01/31 08:59:16;;;;;;;;;;;9.90;99.90;;;;;;5095969;28;19908;-76
2021/01/31 09:01:42;;;;;;;;;;;9.90;99.90;;;;;;5093872;28;20370;-82
2021/01/31 09:04:10;;;;;;;;;;;10.00;99.90;;;;;;5094857;28;20363;-77
2021/01/31 09:06:39;;;;;;;;;;;10.10;99.90;;;;;;5093565;28;19970;-83
2021/01/31 09:09:05;;;;;;;;;;;10.10;99.90;;;;;;5095061;28;19908;-82
2021/01/31 09:11:31;;;;;;;;;;;10.20;99.90;;;;;;5095219;28;19915;-82
2021/01/31 09:14:08;;;;;;;;;;;10.20;99.90;;;;;;5093730;28;19908;-77
2021/01/31 09:16:34;;;;;;;;;;;10.20;99.90;;;;;;5094882;28;20022;-77
2021/01/31 09:19:09;;;;;;;;;;;10.20;99.90;;;;;;5094912;28;19985;-82
2021/01/31 09:21:35;;;;;;;;;;;10.20;99.90;;;;;;5093826;28;20389;-82
2021/01/31 09:24:01;;;;;;;;;;;10.30;99.90;;;;;;5095075;28;19908;-77
2021/01/31 09:26:28;;;;;;;;;;;10.30;99.90;;;;;;5094943;28;19912;-77
2021/01/31 09:28:54;;;;;;;;;;;10.20;99.90;;;;;;5095163;28;20293;-77
2021/01/31 09:31:19;;;;;;;;;;;10.30;99.90;;;;;;5095034;28;19912;-81
2021/01/31 09:33:46;;;;;;;;;;;10.30;99.90;;;;;;5095143;28;20370;-81
2021/01/31 09:36:16;;;;;;;;;;;10.30;99.90;;;;;;5094848;28;19961;-81
2021/01/31 09:38:41;;;;;;;;;;;10.40;99.90;;;;;;5092969;28;19912;-77
2021/01/31 09:41:08;;;;;;;;;;;10.40;99.90;;;;;;5094870;28;19915;-81
2021/01/31 09:43:33;;;;;;;;;;;10.40;99.90;;;;;;5093669;28;19908;-81
2021/01/31 09:46:06;;;;;;;;;;;10.50;99.90;;;;;;5073963;28;19920;-77
2021/01/31 09:48:32;;;;;;;;;;;10.50;99.90;;;;;;5074324;28;19909;-77
2021/01/31 09:51:00;;;;;;;;;;;10.60;99.90;;;;;;5074362;28;19916;-77
2021/01/31 09:53:30;;;;;;;;;;;10.70;99.90;;;;;;5074470;28;20432;-80
2021/01/31 09:55:56;;;;;;;;;;;10.70;99.90;;;;;;5072942;28;19909;-77
2021/01/31 09:58:27;;;;;;;;;;;10.70;99.90;;;;;;5074224;28;19919;-80
2021/01/31 10:00:53;;;;;;;;;;;10.70;99.90;;;;;;5073861;28;19920;-80
2021/01/31 10:03:24;;;;;;;;;;;10.60;99.90;;;;;;5074159;28;19909;-80
2021/01/31 10:06:00;;;;;;;;;;;10.60;99.90;;;;;;5072624;28;19974;-80
2021/01/31 10:08:26;;;;;;;;;;;10.60;99.90;;;;;;5073108;28;19915;-79
2021/01/31 10:10:51;;;;;;;;;;;10.50;99.90;;;;;;5073986;28;19991;-80
2021/01/31 10:13:32;;;;;;;;;;;10.40;99.90;;;;;;5073644;28;20023;-79
2021/01/31 10:16:00;;;;;;;;;;;10.50;99.90;;;;;;5073215;28;19955;-77
2021/01/31 10:18:27;;;;;;;;;;;10.40;99.90;;;;;;5073555;28;19908;-77
2021/01/31 10:21:11;;;;;;;;;;;10.30;99.90;;;;;;5089817;28;20383;-77
2021/01/31 10:23:37;;;;;;;;;;;10.30;99.90;;;;;;5094259;28;19908;-77
2021/01/31 10:26:02;;;;;;;;;;;10.40;99.90;;;;;;5093492;28;19919;-81
2021/01/31 10:28:32;;;;;;;;;;;10.40;99.90;;;;;;5093998;28;19908;-79
2021/01/31 10:30:58;;;;;;;;;;;10.50;99.90;;;;;;5093436;28;19916;-77
2021/01/31 10:33:37;;;;;;;;;;;10.40;99.90;;;;;;5093883;28;19931;-77
2021/01/31 10:36:21;;;;;;;;;;;10.50;99.90;;;;;;5091697;28;19931;-78
2021/01/31 10:38:47;;;;;;;;;;;10.40;99.90;;;;;;5090355;28;19912;-78
2021/01/31 10:41:12;;;;;;;;;;;10.40;99.90;;;;;;5093105;28;19908;-79
2021/01/31 10:43:38;;;;;;;;;;;10.50;99.90;;;;;;5126765;27;19915;-77
2021/01/31 10:46:04;;;;;;;;;;;10.50;99.90;;;;;;5091968;28;20003;-79
2021/01/31 10:48:29;;;;;;;;;;;10.50;99.90;;;;;;5093497;28;19916;-77
2021/01/31 10:50:55;;;;;;;;;;;10.40;99.90;;;;;;5093464;28;19908;-79
2021/01/31 10:53:20;;;;;;;;;;;10.40;99.90;;;;;;5093982;28;19908;-78
2021/01/31 10:55:46;;;;;;;;;;;10.30;99.90;;;;;;5093560;28;20295;-78
2021/01/31 10:58:12;;;;;;;;;;;10.30;99.90;;;;;;5093474;28;19912;-77
2021/01/31 11:00:38;;;;;;;;;;;10.30;99.90;;;;;;5093272;28;19920;-77
2021/01/31 11:03:03;;;;;;;;;;;10.30;99.90;;;;;;5093188;28;19922;-79
2021/01/31 11:05:29;;;;;;;;;;;10.30;99.90;;;;;;5092131;28;19951;-79
2021/01/31 11:07:54;;;;;;;;;;;10.40;99.90;;;;;;5093260;28;19934;-79
2021/01/31 11:10:20;;;;;;;;;;;10.40;99.90;;;;;;5093382;28;19912;-77
2021/01/31 11:12:46;;;;;;;;;;;10.60;99.90;;;;;;5091593;28;19908;-79
2021/01/31 11:15:12;;;;;;;;;;;10.70;99.90;;;;;;5093200;28;19909;-77
2021/01/31 11:17:37;;;;;;;;;;;10.80;99.90;;;;;;5092609;28;19915;-78
2021/01/31 11:20:04;;;;;;;;;;;10.80;99.90;;;;;;5092916;28;19912;-76
2021/01/31 11:22:30;;;;;;;;;;;10.90;99.90;;;;;;5093077;28;19916;-78
2021/01/31 11:24:56;;;;;;;;;;;10.80;99.90;;;;;;5093505;28;19958;-78
2021/01/31 11:27:21;;;;;;;;;;;10.90;99.90;;;;;;5093322;28;19956;-77
2021/01/31 11:29:47;;;;;;;;;;;10.90;99.90;;;;;;5092556;28;19943;-78
2021/01/31 11:32:12;;;;;;;;;;;11.20;99.90;;;;;;5092968;28;20280;-77
2021/01/31 11:34:38;;;;;;;;;;;11.30;99.90;;;;;;5090746;28;19916;-76
2021/01/31 11:37:03;;;;;;;;;;;11.20;99.90;;;;;;5092873;28;19953;-76
2021/01/31 11:39:29;;;;;;;;;;;11.30;99.90;;;;;;5092820;28;19920;-76
2021/01/31 11:41:54;;;;;;;;;;;11.40;99.90;;;;;;5093043;28;19908;-78
2021/01/31 11:44:20;;;;;;;;;;;11.40;99.90;;;;;;5095329;28;19939;-76
2021/01/31 11:46:46;;;;;;;;;;;11.30;99.90;;;;;;5096864;28;20456;-76
2021/01/31 11:49:11;;;;;;;;;;;11.40;99.90;;;;;;5096770;28;19912;-76
2021/01/31 11:51:37;;;;;;;;;;;11.50;99.90;;;;;;5097159;28;19955;-76
2021/01/31 11:54:02;;;;;;;;;;;11.40;99.90;;;;;;5096860;28;19999;-76
2021/01/31 11:56:28;;;;;;;;;;;11.40;99.90;;;;;;5097467;28;19908;-77
2021/01/31 11:58:54;;;;;;;;;;;11.20;99.90;;;;;;5095677;28;20299;-78
2021/01/31 12:01:20;;;;;;;;;;;11.10;99.90;;;;;;5096705;28;20007;-76
2021/01/31 12:03:46;;;;;;;;;;;11.20;99.90;;;;;;5096713;28;19955;-76
2021/01/31 12:06:11;;;;;;;;;;;11.10;99.90;;;;;;5095204;28;20010;-76
2021/01/31 12:08:37;;;;;;;;;;;11.10;99.90;;;;;;5096436;28;19908;-78
2021/01/31 12:11:03;;;;;;;;;;;11.10;99.90;;;;;;5096432;28;20398;-79
2021/01/31 12:13:28;;;;;;;;;;;11.10;99.90;;;;;;5094735;28;19912;-76
2021/01/31 12:15:54;;;;;;;;;;;11.00;99.90;;;;;;5094959;28;19990;-79
2021/01/31 12:18:19;;;;;;;;;;;11.00;99.90;;;;;;5096153;28;20449;-76
2021/01/31 12:20:45;;;;;;;;;;;11.00;99.90;;;;;;5096328;28;19915;-76
2021/01/31 12:23:10;;;;;;;;;;;10.90;99.90;;;;;;5095849;28;20282;-78
2021/01/31 12:25:36;;;;;;;;;;;10.90;99.90;;;;;;5096474;28;19931;-76
2021/01/31 12:28:02;;;;;;;;;;;11.10;99.90;;;;;;5096471;28;20002;-77
2021/01/31 12:30:29;;;;;;;;;;;11.20;99.90;;;;;;5095980;28;20363;-76
2021/01/31 12:32:58;;;;;;;;;;;11.10;99.90;;;;;;5096247;28;20430;-77
2021/01/31 12:35:24;;;;;;;;;;;11.10;99.90;;;;;;5096273;28;19909;-78
2021/01/31 12:37:49;;;;;;;;;;;11.20;99.90;;;;;;5096058;28;19999;-76
2021/01/31 12:40:15;;;;;;;;;;;11.20;99.90;;;;;;5095508;28;19912;-76
2021/01/31 12:42:46;;;;;;;;;;;11.30;99.90;;;;;;5094773;28;19915;-78
2021/01/31 12:45:13;;;;;;;;;;;11.40;99.90;;;;;;5095834;28;19908;-76
2021/01/31 12:47:38;;;;;;;;;;;11.30;99.90;;;;;;5095449;28;20447;-77
2021/01/31 12:50:04;;;;;;;;;;;11.20;99.90;;;;;;5095899;28;19955;-78
2021/01/31 12:52:30;;;;;;;;;;;11.10;99.90;;;;;;5094502;28;20054;-77
2021/01/31 12:54:55;;;;;;;;;;;11.00;99.90;;;;;;5095372;28;19973;-77
2021/01/31 12:57:21;;;;;;;;;;;10.90;99.90;;;;;;5095766;28;19909;-77
2021/01/31 12:59:46;;;;;;;;;;;10.80;99.90;;;;;;5094186;28;19920;-78
2021/01/31 13:02:12;;;;;;;;;;;10.90;99.90;;;;;;5095152;28;19908;-77
2021/01/31 13:04:39;;;;;;;;;;;10.80;99.90;;;;;;5095612;28;19911;-76
2021/01/31 13:07:05;;;;;;;;;;;10.70;99.90;;;;;;5094488;28;19924;-76
2021/01/31 13:09:31;;;;;;;;;;;10.60;99.90;;;;;;5095214;28;19908;-77
2021/01/31 13:11:57;;;;;;;;;;;10.70;99.90;;;;;;5094983;28;19908;-77
2021/01/31 13:14:23;;;;;;;;;;;10.80;99.90;;;;;;5094471;28;20279;-78
2021/01/31 13:16:49;;;;;;;;;;;10.80;99.90;;;;;;5094858;28;19965;-78
2021/01/31 13:19:14;;;;;;;;;;;10.80;99.90;;;;;;5095193;28;19919;-78
2021/01/31 13:21:40;;;;;;;;;;;10.70;99.90;;;;;;5095254;28;19915;-82
2021/01/31 13:24:05;;;;;;;;;;;10.80;99.90;;;;;;5095177;28;19908;-77
2021/01/31 13:26:31;;;;;;;;;;;10.80;99.90;;;;;;5095168;28;19912;-82
2021/01/31 13:28:57;;;;;;;;;;;10.80;99.90;;;;;;5095044;28;19909;-77
2021/01/31 13:31:22;;;;;;;;;;;11.00;99.90;;;;;;5095042;28;19909;-78
2021/01/31 13:33:48;;;;;;;;;;;11.10;99.90;;;;;;5094955;28;20294;-81
2021/01/31 13:36:14;;;;;;;;;;;11.00;99.90;;;;;;5094802;28;20391;-81
2021/01/31 13:38:39;;;;;;;;;;;10.80;99.90;;;;;;5089269;28;19999;-78
2021/01/31 13:41:05;;;;;;;;;;;10.70;99.90;;;;;;5073200;28;19997;-82
2021/01/31 13:43:30;;;;;;;;;;;10.70;99.90;;;;;;5074480;28;19908;-77
2021/01/31 13:45:56;;;;;;;;;;;10.80;99.90;;;;;;5074369;28;19999;-82
2021/01/31 13:48:21;;;;;;;;;;;10.70;99.90;;;;;;5074598;28;20286;-78
2021/01/31 13:50:48;;;;;;;;;;;10.80;99.90;;;;;;5109553;28;19957;-83
2021/01/31 13:53:14;;;;;;;;;;;10.70;99.90;;;;;;5094642;28;19908;-82
2021/01/31 13:55:39;;;;;;;;;;;10.60;99.90;;;;;;5094590;28;19915;-78
2021/01/31 13:58:05;;;;;;;;;;;10.70;99.90;;;;;;5093430;28;19955;-80
2021/01/31 14:00:30;;;;;;;;;;;10.60;99.90;;;;;;5094288;28;20370;-81
2021/01/31 14:02:56;;;;;;;;;;;10.70;99.90;;;;;;5094520;28;19915;-78
2021/01/31 14:05:22;;;;;;;;;;;10.60;99.90;;;;;;5094400;28;20018;-79
2021/01/31 14:07:48;;;;;;;;;;;10.60;99.90;;;;;;5091903;28;19912;-78
2021/01/31 14:10:14;;;;;;;;;;;10.50;99.90;;;;;;5094283;28;20405;-78
2021/01/31 14:12:40;;;;;;;;;;;10.40;99.90;;;;;;5092435;28;19912;-77
2021/01/31 14:15:06;;;;;;;;;;;10.40;99.90;;;;;;5094334;28;20393;-77
2021/01/31 14:17:32;;;;;;;;;;;10.40;99.90;;;;;;5092351;28;19908;-77
2021/01/31 14:19:57;;;;;;;;;;;10.40;99.90;;;;;;5094360;28;19908;-79
2021/01/31 14:22:23;;;;;;;;;;;10.50;99.90;;;;;;5094087;28;19908;-80
2021/01/31 14:24:50;;;;;;;;;;;10.40;99.90;;;;;;5092702;28;19919;-79
2021/01/31 14:27:16;;;;;;;;;;;10.40;99.90;;;;;;5093872;28;19993;-84
2021/01/31 14:29:41;;;;;;;;;;;10.40;99.90;;;;;;5092652;28;20386;-80
2021/01/31 14:32:07;;;;;;;;;;;10.40;99.90;;;;;;5093767;28;20263;-77
2021/01/31 14:34:33;;;;;;;;;;;10.40;99.90;;;;;;5093958;28;19908;-79